createdAt,value
2019-05-29T00:02:26.349Z,0.30
2019-05-29T00:04:57.732Z,0.10
2019-05-29T00:07:29.210Z,0.20
2019-05-29T00:10:01.180Z,0.72
2019-05-29T00:12:32.916Z,0.28
2019-05-29T00:15:04.114Z,0.30
2019-05-29T00:17:36.271Z,0.40
2019-05-29T00:20:08.302Z,0.27
2019-05-29T00:22:39.319Z,0.40
2019-05-29T00:25:11.148Z,0.23
2019-05-29T00:27:42.354Z,0.10
2019-05-29T00:30:14.896Z,0.37
2019-05-29T00:32:46.433Z,0.40
2019-05-29T00:35:17.916Z,0.30
2019-05-29T00:37:49.184Z,0.20
2019-05-29T00:40:20.689Z,0.33
2019-05-29T00:42:51.640Z,0.30
2019-05-29T00:45:22.935Z,0.30
2019-05-29T00:47:53.901Z,0.40
2019-05-29T00:53:14.296Z,0.20
2019-05-29T00:55:45.206Z,0.40
2019-05-29T00:58:17.196Z,0.33
2019-05-29T01:00:48.531Z,0.60
2019-05-29T01:03:19.765Z,0.93
2019-05-29T01:05:51.347Z,0.40
2019-05-29T01:08:22.311Z,0.33
2019-05-29T01:10:53.615Z,0.57
2019-05-29T01:13:25.083Z,0.50
2019-05-29T01:15:56.433Z,0.30
2019-05-29T01:18:27.756Z,0.20
2019-05-29T01:20:58.748Z,0.37
2019-05-29T01:23:29.748Z,0.30
2019-05-29T01:26:00.867Z,0.40
2019-05-29T01:28:31.778Z,0.60
2019-05-29T01:31:03.534Z,0.50
2019-05-29T01:33:34.598Z,0.40
2019-05-29T01:36:05.599Z,0.40
2019-05-29T01:38:36.825Z,0.40
2019-05-29T01:41:08.540Z,0.57
2019-05-29T01:43:39.523Z,0.20
2019-05-29T01:46:10.213Z,0.40
2019-05-29T01:48:40.272Z,0.40
2019-05-29T01:51:10.854Z,0.30
2019-05-29T01:53:41.557Z,0.50
2019-05-29T01:56:11.973Z,0.30
2019-05-29T01:58:42.409Z,0.50
2019-05-29T02:01:12.802Z,0.27
2019-05-29T02:03:43.138Z,0.37
2019-05-29T02:06:13.525Z,0.37
2019-05-29T02:08:43.933Z,0.20
2019-05-29T02:11:14.974Z,0.37
2019-05-29T02:13:45.897Z,0.50
2019-05-29T02:16:16.541Z,0.30
2019-05-29T02:18:47.189Z,0.30
2019-05-29T02:21:18.084Z,0.50
2019-05-29T02:23:49.470Z,0.43
2019-05-29T02:26:20.412Z,0.50
2019-05-29T02:28:50.842Z,0.33
2019-05-29T02:31:22.424Z,0.43
2019-05-29T02:33:53.295Z,0.20
2019-05-29T02:36:24.541Z,0.30
2019-05-29T02:38:55.561Z,0.40
2019-05-29T02:41:28.447Z,0.30
2019-05-29T02:43:58.543Z,0.47
2019-05-29T02:46:30.199Z,0.40
2019-05-29T02:49:00.829Z,0.50
2019-05-29T02:51:31.263Z,0.97
2019-05-29T02:54:01.698Z,0.37
2019-05-29T02:56:32.045Z,0.43
2019-05-29T02:59:02.371Z,0.47
2019-05-29T03:01:32.688Z,0.37
2019-05-29T03:04:02.619Z,0.60
2019-05-29T03:06:33.091Z,0.50
2019-05-29T03:09:05.604Z,0.47
2019-05-29T03:11:36.261Z,0.40
2019-05-29T03:14:06.585Z,0.40
2019-05-29T03:16:36.939Z,0.77
2019-05-29T03:19:06.755Z,0.50
2019-05-29T03:21:37.039Z,0.70
2019-05-29T03:24:08.597Z,0.50
2019-05-29T03:26:47.153Z,0.50
2019-05-29T03:29:18.583Z,0.47
2019-05-29T03:31:49.570Z,0.60
2019-05-29T03:34:20.882Z,0.93
2019-05-29T03:36:51.877Z,0.40
2019-05-29T03:39:26.206Z,0.70
2019-05-29T03:41:57.084Z,0.33
2019-05-29T03:44:28.804Z,0.40
2019-05-29T03:47:00.252Z,0.50
2019-05-29T03:49:32.728Z,0.50
2019-05-29T03:52:04.480Z,0.40
2019-05-29T03:54:36.567Z,0.60
2019-05-29T03:57:07.561Z,0.50
2019-05-29T03:59:38.933Z,0.30
2019-05-29T04:02:09.879Z,0.57
2019-05-29T04:04:41.477Z,0.80
2019-05-29T04:07:13.446Z,0.50
2019-05-29T04:09:44.483Z,0.60
2019-05-29T04:12:19.029Z,0.60
2019-05-29T04:14:53.660Z,0.70
2019-05-29T04:17:26.916Z,0.53
2019-05-29T04:19:58.528Z,0.42
2019-05-29T04:22:36.934Z,0.87
2019-05-29T04:25:09.141Z,0.60
2019-05-29T04:27:42.455Z,0.53
2019-05-29T04:30:13.740Z,0.90
2019-05-29T04:32:47.130Z,0.47
2019-05-29T04:35:18.273Z,0.63
2019-05-29T04:37:49.488Z,0.57
2019-05-29T04:40:20.472Z,0.70
2019-05-29T04:42:52.328Z,0.80
2019-05-29T04:45:24.330Z,0.53
2019-05-29T04:47:56.000Z,0.60
2019-05-29T04:50:29.098Z,0.60
2019-05-29T04:53:00.232Z,1.07
2019-05-29T04:55:31.234Z,0.63
2019-05-29T04:58:02.905Z,0.80
2019-05-29T05:00:35.205Z,0.80
2019-05-29T05:03:06.502Z,0.60
2019-05-29T05:05:37.622Z,0.57
2019-05-29T05:08:08.689Z,0.60
2019-05-29T05:10:42.419Z,0.60
2019-05-29T05:13:13.425Z,0.63
2019-05-29T05:15:45.867Z,0.60
2019-05-29T05:18:17.233Z,0.70
2019-05-29T05:20:48.741Z,0.70
2019-05-29T05:23:19.702Z,1.20
2019-05-29T05:25:51.070Z,0.90
2019-05-29T05:28:22.216Z,1.00
2019-05-29T05:30:53.230Z,0.90
2019-05-29T05:33:25.089Z,1.27
2019-05-29T05:35:56.395Z,0.93
2019-05-29T05:38:27.440Z,0.60
2019-05-29T05:40:59.080Z,1.20
2019-05-29T05:43:30.684Z,0.87
2019-05-29T05:46:01.943Z,0.67
2019-05-29T05:48:33.264Z,0.93
2019-05-29T05:51:04.696Z,0.70
2019-05-29T05:53:35.936Z,1.00
2019-05-29T05:56:07.945Z,0.70
2019-05-29T05:58:39.923Z,0.90
2019-05-29T06:01:11.509Z,0.68
2019-05-29T06:03:44.361Z,0.70
2019-05-29T06:06:15.298Z,0.70
2019-05-29T06:08:46.371Z,1.03
2019-05-29T06:11:17.658Z,0.67
2019-05-29T06:13:51.964Z,0.53
2019-05-29T06:16:23.316Z,0.87
2019-05-29T06:18:54.521Z,0.80
2019-05-29T06:21:25.791Z,0.50
2019-05-29T06:23:57.185Z,0.80
2019-05-29T06:26:28.382Z,0.80
2019-05-29T06:28:59.361Z,0.83
2019-05-29T06:31:30.341Z,0.73
2019-05-29T06:34:01.284Z,0.67
2019-05-29T06:36:33.446Z,0.70
2019-05-29T06:39:07.053Z,0.70
2019-05-29T06:41:38.384Z,0.37
2019-05-29T06:44:09.332Z,0.40
2019-05-29T06:46:40.650Z,0.50
2019-05-29T06:49:11.553Z,0.57
2019-05-29T06:51:43.459Z,0.60
2019-05-29T06:54:14.998Z,0.20
2019-05-29T06:56:46.200Z,0.50
2019-05-29T06:59:17.241Z,0.30
2019-05-29T07:01:48.365Z,0.43
2019-05-29T07:04:19.308Z,0.30
2019-05-29T07:06:50.767Z,0.80
2019-05-29T07:09:21.737Z,0.60
2019-05-29T07:11:53.322Z,0.30
2019-05-29T07:14:24.540Z,0.40
2019-05-29T07:16:56.573Z,0.50
2019-05-29T07:19:47.145Z,0.43
2019-05-29T07:22:00.625Z,0.40
2019-05-29T07:24:31.620Z,0.50
2019-05-29T07:27:03.150Z,0.20
2019-05-29T07:29:34.588Z,0.40
2019-05-29T07:32:05.704Z,0.80
2019-05-29T07:34:55.263Z,0.30
2019-05-29T07:37:09.613Z,0.30
2019-05-29T07:39:41.640Z,0.30
2019-05-29T07:42:12.714Z,0.50
2019-05-29T07:44:44.085Z,0.40
2019-05-29T07:47:15.261Z,0.50
2019-05-29T07:49:48.129Z,0.43
2019-05-29T07:52:19.179Z,0.40
2019-05-29T07:54:50.438Z,0.30
2019-05-29T07:57:21.669Z,0.42
2019-05-29T07:59:53.054Z,0.60
2019-05-29T08:02:24.134Z,0.50
2019-05-29T08:04:55.175Z,0.40
2019-05-29T08:07:26.665Z,0.60
2019-05-29T08:09:57.720Z,0.40
2019-05-29T08:12:28.670Z,0.40
2019-05-29T08:14:59.638Z,0.50
2019-05-29T08:17:31.856Z,0.30
2019-05-29T08:20:07.447Z,0.47
2019-05-29T08:22:35.559Z,0.40
2019-05-29T08:25:06.817Z,0.50
2019-05-29T08:27:40.458Z,0.40
2019-05-29T08:30:13.432Z,0.50
2019-05-29T08:32:45.414Z,0.63
2019-05-29T08:35:16.520Z,0.50
2019-05-29T08:37:47.505Z,0.30
2019-05-29T08:40:18.849Z,0.40
2019-05-29T08:42:49.886Z,0.50
2019-05-29T08:45:21.073Z,0.50
2019-05-29T08:47:52.048Z,0.40
2019-05-29T08:50:23.088Z,0.40
2019-05-29T08:52:54.043Z,0.30
2019-05-29T08:55:25.028Z,0.73
2019-05-29T08:57:56.003Z,0.40
2019-05-29T09:00:27.169Z,0.23
2019-05-29T09:02:58.119Z,0.33
2019-05-29T09:05:29.364Z,0.20
2019-05-29T09:08:00.565Z,0.77
2019-05-29T09:10:31.546Z,0.20
2019-05-29T09:13:05.143Z,0.30
2019-05-29T09:15:35.544Z,0.30
2019-05-29T09:18:06.642Z,0.67
2019-05-29T09:21:01.165Z,0.47
2019-05-29T09:23:12.751Z,0.30
2019-05-29T09:25:44.783Z,0.30
2019-05-29T09:28:18.385Z,0.20
2019-05-29T09:30:49.251Z,0.40
2019-05-29T09:33:21.864Z,0.50
2019-05-29T09:35:53.688Z,0.57
2019-05-29T09:38:25.113Z,0.50
2019-05-29T09:40:56.148Z,0.50
2019-05-29T09:43:30.678Z,0.30
2019-05-29T09:46:02.176Z,0.43
2019-05-29T09:48:48.524Z,0.50
2019-05-29T09:51:20.795Z,0.50
2019-05-29T09:53:38.307Z,0.43
2019-05-29T09:56:09.347Z,0.40
2019-05-29T09:58:40.402Z,0.30
2019-05-29T10:01:22.728Z,0.45
2019-05-29T10:03:44.736Z,0.20
2019-05-29T10:06:15.747Z,0.40
2019-05-29T10:08:46.975Z,0.40
2019-05-29T10:11:18.421Z,0.30
2019-05-29T10:13:49.392Z,0.30
2019-05-29T10:16:20.343Z,0.70
2019-05-29T10:18:51.568Z,0.30
2019-05-29T10:21:38.665Z,0.47
2019-05-29T10:23:56.604Z,0.30
2019-05-29T10:26:28.002Z,0.57
2019-05-29T10:29:07.961Z,0.40
2019-05-29T10:31:31.788Z,0.27
2019-05-29T10:34:02.786Z,0.30
2019-05-29T10:36:34.129Z,0.50
2019-05-29T10:39:07.911Z,0.40
2019-05-29T10:41:38.882Z,0.20
2019-05-29T10:44:12.627Z,0.33
2019-05-29T10:46:45.938Z,0.40
2019-05-29T10:49:15.748Z,0.20
2019-05-29T10:52:01.584Z,0.17
2019-05-29T10:54:19.450Z,0.30
2019-05-29T10:56:50.859Z,0.20
2019-05-29T10:59:22.647Z,0.40
2019-05-29T11:01:54.298Z,0.30
2019-05-29T11:04:26.351Z,0.30
2019-05-29T11:06:57.377Z,0.53
2019-05-29T11:09:43.402Z,0.40
2019-05-29T11:12:01.166Z,0.30
2019-05-29T11:14:32.163Z,0.30
2019-05-29T11:17:03.713Z,0.50
2019-05-29T11:19:34.707Z,0.30
2019-05-29T11:22:25.347Z,0.40
2019-05-29T11:24:39.154Z,0.20
2019-05-29T11:27:10.109Z,0.30
2019-05-29T11:29:42.085Z,0.20
2019-05-29T11:32:13.140Z,0.43
2019-05-29T11:34:44.128Z,0.40
2019-05-29T11:37:16.583Z,0.30
2019-05-29T11:39:47.658Z,0.47
2019-05-29T11:42:27.527Z,0.30
2019-05-29T11:44:53.316Z,0.30
2019-05-29T11:47:25.046Z,0.30
2019-05-29T11:50:00.478Z,0.20
2019-05-29T11:52:41.747Z,0.30
2019-05-29T11:55:07.336Z,0.20
2019-05-29T11:57:39.743Z,0.10
2019-05-29T12:00:19.575Z,0.63
2019-05-29T12:02:44.856Z,0.30
2019-05-29T12:05:16.484Z,0.20
2019-05-29T12:07:47.726Z,0.10
2019-05-29T12:10:18.966Z,0.10
2019-05-29T12:12:51.256Z,0.27
2019-05-29T12:15:23.088Z,0.20
2019-05-29T12:17:59.880Z,0.30
2019-05-29T12:20:28.686Z,0.27
2019-05-29T12:23:24.352Z,0.20
2019-05-29T12:25:33.102Z,0.30
2019-05-29T12:28:04.349Z,0.20
2019-05-29T12:30:35.462Z,0.20
2019-05-29T12:33:06.558Z,0.30
2019-05-29T12:35:37.495Z,0.30
2019-05-29T12:38:08.687Z,0.20
2019-05-29T12:40:40.126Z,0.30
2019-05-29T12:43:25.885Z,0.20
2019-05-29T12:45:44.159Z,0.10
2019-05-29T12:48:16.020Z,0.40
2019-05-29T12:50:48.711Z,0.20
2019-05-29T12:53:30.413Z,0.23
2019-05-29T12:55:53.978Z,0.55
2019-05-29T12:58:25.328Z,0.33
2019-05-29T13:00:56.545Z,0.20
2019-05-29T13:03:27.531Z,0.30
2019-05-29T13:05:58.758Z,0.20
2019-05-29T13:08:29.945Z,0.30
2019-05-29T13:11:01.019Z,0.30
2019-05-29T13:13:32.073Z,0.40
2019-05-29T13:16:03.169Z,0.30
2019-05-29T13:18:34.124Z,0.30
2019-05-29T13:21:05.585Z,0.30
2019-05-29T13:23:45.214Z,0.20
2019-05-29T13:26:10.124Z,0.30
2019-05-29T13:28:41.328Z,0.33
2019-05-29T13:31:12.851Z,0.20
2019-05-29T13:33:44.190Z,0.50
2019-05-29T13:36:15.173Z,0.30
2019-05-29T13:38:46.362Z,0.20
2019-05-29T13:41:17.808Z,0.57
2019-05-29T13:43:49.201Z,0.23
2019-05-29T13:46:20.152Z,0.35
2019-05-29T13:48:51.547Z,0.20
2019-05-29T13:51:22.747Z,0.30
2019-05-29T13:54:03.654Z,0.10
2019-05-29T13:56:26.424Z,0.30
2019-05-29T13:58:57.885Z,0.60
2019-05-29T14:01:29.198Z,0.30
2019-05-29T14:04:02.649Z,0.20
2019-05-29T14:06:33.895Z,0.40
2019-05-29T14:09:07.642Z,0.20
2019-05-29T14:11:39.167Z,0.10
2019-05-29T14:14:13.319Z,0.50
2019-05-29T14:16:43.445Z,0.20
2019-05-29T14:19:14.761Z,0.20
2019-05-29T14:21:46.471Z,0.20
2019-05-29T14:24:28.316Z,0.20
2019-05-29T14:26:50.432Z,0.13
2019-05-29T14:29:21.559Z,0.40
2019-05-29T14:31:53.332Z,0.20
2019-05-29T14:34:24.731Z,0.30
2019-05-29T14:36:55.737Z,0.43
2019-05-29T14:39:26.737Z,0.43
2019-05-29T14:41:58.598Z,0.15
2019-05-29T14:44:29.848Z,0.20
2019-05-29T14:47:01.852Z,0.23
2019-05-29T14:49:32.814Z,0.30
2019-05-29T14:52:04.578Z,0.20
2019-05-29T14:54:41.744Z,0.50
2019-05-29T14:57:21.327Z,0.20
2019-05-29T14:59:41.295Z,0.20
2019-05-29T15:02:21.585Z,0.40
2019-05-29T15:04:45.638Z,0.20
2019-05-29T15:07:16.913Z,0.30
2019-05-29T15:09:47.991Z,0.40
2019-05-29T15:12:20.030Z,0.30
2019-05-29T15:14:51.011Z,0.40
2019-05-29T15:17:22.675Z,0.30
2019-05-29T15:19:53.677Z,0.30
2019-05-29T15:22:25.511Z,0.30
2019-05-29T15:25:08.112Z,0.20
2019-05-29T15:27:29.696Z,0.20
2019-05-29T15:30:00.717Z,0.30
2019-05-29T15:32:32.060Z,0.40
2019-05-29T15:35:03.174Z,0.50
2019-05-29T15:37:34.418Z,0.40
2019-05-29T15:40:06.974Z,0.40
2019-05-29T15:42:38.081Z,0.20
2019-05-29T15:45:10.094Z,0.40
2019-05-29T15:47:41.174Z,0.30
2019-05-29T15:50:17.946Z,0.20
2019-05-29T15:52:49.776Z,0.40
2019-05-29T15:55:32.220Z,0.20
2019-05-29T15:57:53.947Z,0.37
2019-05-29T16:00:25.025Z,0.27
2019-05-29T16:02:56.584Z,0.30
2019-05-29T16:05:27.558Z,0.50
2019-05-29T16:07:59.547Z,0.37
2019-05-29T16:10:30.600Z,0.50
2019-05-29T16:13:02.186Z,0.30
2019-05-29T16:15:33.902Z,0.40
2019-05-29T16:18:18.647Z,0.47
2019-05-29T16:20:37.796Z,0.30
2019-05-29T16:23:08.920Z,0.30
2019-05-29T16:25:40.907Z,0.30
2019-05-29T16:28:13.128Z,0.23
2019-05-29T16:30:46.528Z,0.50
2019-05-29T16:33:19.391Z,0.30
2019-05-29T16:35:50.864Z,0.70
2019-05-29T16:38:22.080Z,0.42
2019-05-29T16:40:53.807Z,0.87
2019-05-29T16:43:25.494Z,0.50
2019-05-29T16:45:57.179Z,0.40
2019-05-29T16:48:28.408Z,0.30
2019-05-29T16:50:59.827Z,0.40
2019-05-29T16:53:30.839Z,0.50
2019-05-29T16:56:01.897Z,0.40
2019-05-29T16:58:32.923Z,0.57
2019-05-29T17:01:04.353Z,0.30
2019-05-29T17:03:35.429Z,0.40
2019-05-29T17:06:06.577Z,0.43
2019-05-29T17:08:37.767Z,0.40
2019-05-29T17:11:09.347Z,0.37
2019-05-29T17:13:40.455Z,0.40
2019-05-29T17:16:11.838Z,0.40
2019-05-29T17:18:43.461Z,0.37
2019-05-29T17:21:14.825Z,0.30
2019-05-29T17:23:46.184Z,0.37
2019-05-29T17:26:17.306Z,0.30
2019-05-29T17:28:48.340Z,0.27
2019-05-29T17:31:20.904Z,0.40
2019-05-29T17:33:52.394Z,0.50
2019-05-29T17:36:28.198Z,0.50
2019-05-29T17:38:56.537Z,0.30
2019-05-29T17:41:27.741Z,0.40
2019-05-29T17:46:33.916Z,0.50
2019-05-29T17:49:05.778Z,0.33
2019-05-29T17:51:36.939Z,0.50
2019-05-29T17:54:08.159Z,0.40
2019-05-29T17:56:39.770Z,0.30
2019-05-29T17:59:10.962Z,0.50
2019-05-29T18:01:42.548Z,0.50
2019-05-29T18:04:16.090Z,0.30
2019-05-29T18:06:47.173Z,0.50
2019-05-29T18:09:19.480Z,0.30
2019-05-29T18:11:51.965Z,0.30
2019-05-29T18:14:23.604Z,0.60
2019-05-29T18:16:54.940Z,0.40
2019-05-29T18:19:26.189Z,0.33
2019-05-29T18:21:57.770Z,0.60
2019-05-29T18:24:29.991Z,0.50
2019-05-29T18:27:01.895Z,0.40
2019-05-29T18:29:33.733Z,0.50
2019-05-29T18:32:04.920Z,0.60
2019-05-29T18:34:36.942Z,0.70
2019-05-29T18:37:09.560Z,0.50
2019-05-29T18:39:42.449Z,0.70
2019-05-29T18:42:14.740Z,0.60
2019-05-29T18:44:46.508Z,0.60
2019-05-29T18:47:18.686Z,0.70
2019-05-29T18:49:49.694Z,0.80
2019-05-29T18:52:21.861Z,0.42
2019-05-29T18:54:53.968Z,0.40
2019-05-29T18:57:25.602Z,0.50
2019-05-29T18:59:57.435Z,0.40
2019-05-29T19:02:30.183Z,0.40
2019-05-29T19:05:02.884Z,0.47
2019-05-29T19:07:35.354Z,0.40
2019-05-29T19:10:07.327Z,0.47
2019-05-29T19:12:38.997Z,0.53
2019-05-29T19:15:10.452Z,0.43
2019-05-29T19:17:41.569Z,0.60
2019-05-29T19:20:14.270Z,1.10
2019-05-29T19:22:47.773Z,0.70
2019-05-29T19:25:19.166Z,0.70
2019-05-29T19:27:52.165Z,0.73
2019-05-29T19:30:24.876Z,0.40
2019-05-29T19:32:57.064Z,0.63
2019-05-29T19:35:29.599Z,0.60
2019-05-29T19:38:01.185Z,0.90
2019-05-29T19:40:34.530Z,0.80
2019-05-29T19:43:07.994Z,0.60
2019-05-29T19:45:43.031Z,0.70
2019-05-29T19:48:15.833Z,0.87
2019-05-29T19:50:47.753Z,0.80
2019-05-29T19:53:19.356Z,4.37
2019-05-29T19:55:51.101Z,1.73
2019-05-29T19:58:25.648Z,1.85
2019-05-29T20:00:57.214Z,1.40
2019-05-29T20:03:29.026Z,1.77
2019-05-29T20:06:01.291Z,1.73
2019-05-29T20:08:36.261Z,0.90
2019-05-29T20:11:07.617Z,1.00
2019-05-29T20:13:39.435Z,1.47
2019-05-29T20:16:10.851Z,1.43
2019-05-29T20:18:42.264Z,1.50
2019-05-29T20:21:13.749Z,1.03
2019-05-29T20:23:45.818Z,1.00
2019-05-29T20:26:17.465Z,0.73
2019-05-29T20:28:49.558Z,1.77
2019-05-29T20:31:21.520Z,1.12
2019-05-29T20:33:53.482Z,0.97
2019-05-29T20:36:27.295Z,1.10
2019-05-29T20:38:59.504Z,0.90
2019-05-29T20:41:34.139Z,0.70
2019-05-29T20:44:06.098Z,1.13
2019-05-29T20:46:38.704Z,1.10
2019-05-29T20:49:10.145Z,1.00
2019-05-29T20:51:42.304Z,1.30
2019-05-29T20:54:16.719Z,0.80
2019-05-29T20:56:48.854Z,0.80
2019-05-29T20:59:20.339Z,1.37
2019-05-29T21:01:51.737Z,0.90
2019-05-29T21:04:23.734Z,0.80
2019-05-29T21:06:56.673Z,0.97
2019-05-29T21:09:30.199Z,0.90
2019-05-29T21:12:02.455Z,1.30
2019-05-29T21:14:35.446Z,1.00
2019-05-29T21:17:06.963Z,0.80
2019-05-29T21:19:40.654Z,0.60
2019-05-29T21:22:14.635Z,0.70
2019-05-29T21:24:59.675Z,0.60
2019-05-29T21:27:27.015Z,0.80
2019-05-29T21:30:05.386Z,0.90
2019-05-29T21:32:37.804Z,1.07
2019-05-29T21:35:11.430Z,0.83
2019-05-29T21:37:46.525Z,0.80
2019-05-29T21:40:18.901Z,0.88
2019-05-29T21:42:50.551Z,1.00
2019-05-29T21:45:23.064Z,0.90
2019-05-29T21:47:56.383Z,1.00
2019-05-29T21:50:28.431Z,1.10
2019-05-29T21:52:59.890Z,0.80
2019-05-29T21:55:30.974Z,1.00
2019-05-29T21:58:02.397Z,0.80
2019-05-29T22:00:38.015Z,1.00
2019-05-29T22:03:11.349Z,1.17
2019-05-29T22:05:44.746Z,1.12
2019-05-29T22:08:17.296Z,1.20
2019-05-29T22:10:49.190Z,1.30
2019-05-29T22:13:21.025Z,1.20
2019-05-29T22:15:54.734Z,1.30
2019-05-29T22:18:31.011Z,1.20
2019-05-29T22:21:06.320Z,1.07
2019-05-29T22:23:39.419Z,1.33
2019-05-29T22:26:11.748Z,1.30
2019-05-29T22:28:44.888Z,1.37
2019-05-29T22:31:18.601Z,1.00
2019-05-29T22:33:51.434Z,1.00
2019-05-29T22:36:23.698Z,1.27
2019-05-29T22:38:55.485Z,1.10
2019-05-29T22:41:27.134Z,1.10
2019-05-29T22:43:59.709Z,1.07
2019-05-29T22:46:31.011Z,1.75
2019-05-29T22:49:04.075Z,1.20
2019-05-29T22:51:36.036Z,1.40
2019-05-29T22:54:07.582Z,1.40
2019-05-29T22:56:40.521Z,1.37
2019-05-29T22:59:30.923Z,1.20
2019-05-29T23:01:52.089Z,1.00
2019-05-29T23:04:24.755Z,1.30
2019-05-29T23:06:58.357Z,1.03
2019-05-29T23:09:30.317Z,1.10
2019-05-29T23:12:03.428Z,1.00
2019-05-29T23:14:34.614Z,1.27
2019-05-29T23:17:05.864Z,1.00
2019-05-29T23:19:37.547Z,1.00
2019-05-29T23:22:10.815Z,1.30
2019-05-29T23:24:44.761Z,1.27
2019-05-29T23:27:17.187Z,1.43
2019-05-29T23:29:52.582Z,2.20
2019-05-29T23:32:25.559Z,0.60
2019-05-29T23:34:59.086Z,1.70
2019-05-29T23:37:34.487Z,1.17
2019-05-29T23:40:05.954Z,1.13
2019-05-29T23:42:39.770Z,1.30
2019-05-29T23:45:59.399Z,1.40
2019-05-29T23:48:11.056Z,1.20
2019-05-29T23:50:42.707Z,1.30
2019-05-29T23:53:14.824Z,1.80
2019-05-29T23:55:48.083Z,1.40
2019-05-29T23:58:21.125Z,1.70
